Time;durP1;ratioP1;P1;durP2;ratioP2;P2;SDS_P1;SDS_P2;PMS_P1;PMS_P2;Temp;Humidity;BMP_temperature;BMP_pressure;BME280_temperature;BME280_humidity;BME280_pressure;Samples;Min_cycle;Max_cycle;Signal;HPM_P1;HPM_P2
2021/10/23 00:01:46;;;;;;;;;;;24.00;30.00;;;;;;484685;246;1276;-74
2021/10/23 00:03:47;;;;;;;;;;;24.00;30.00;;;;;;484593;246;1191;-74
2021/10/23 00:05:49;;;;;;;;;;;23.90;30.10;;;;;;484645;246;1258;-74
2021/10/23 00:07:50;;;;;;;;;;;23.90;30.00;;;;;;484592;246;1071;-74
2021/10/23 00:09:52;;;;;;;;;;;24.10;30.00;;;;;;484612;246;2199;-74
2021/10/23 00:11:53;;;;;;;;;;;23.90;30.00;;;;;;484600;241;1221;-74
2021/10/23 00:13:54;;;;;;;;;;;23.80;30.10;;;;;;484595;246;1069;-74
2021/10/23 00:15:55;;;;;;;;;;;23.90;30.00;;;;;;484599;246;1055;-74
2021/10/23 00:17:57;;;;;;;;;;;23.90;30.00;;;;;;484503;246;1136;-74
2021/10/23 00:20:00;;;;;;;;;;;23.80;30.00;;;;;;484346;246;968;-74
2021/10/23 00:21:59;;;;;;;;;;;23.90;30.00;;;;;;484431;246;1404;-74
2021/10/23 00:24:01;;;;;;;;;;;23.80;30.10;;;;;;484557;246;965;-74
2021/10/23 00:26:02;;;;;;;;;;;24.00;30.00;;;;;;484524;246;1007;-74
2021/10/23 00:28:03;;;;;;;;;;;23.80;30.00;;;;;;484545;246;1276;-74
2021/10/23 00:30:05;;;;;;;;;;;23.90;30.00;;;;;;484600;246;2184;-74
2021/10/23 00:32:06;;;;;;;;;;;23.80;30.00;;;;;;484583;246;1311;-74
2021/10/23 00:34:07;;;;;;;;;;;23.90;30.00;;;;;;484647;246;1178;-74
2021/10/23 00:36:09;;;;;;;;;;;23.80;30.00;;;;;;484569;246;1023;-74
2021/10/23 00:38:10;;;;;;;;;;;23.90;29.90;;;;;;484581;246;998;-74
2021/10/23 00:40:12;;;;;;;;;;;23.90;30.00;;;;;;484594;246;930;-74
2021/10/23 00:42:13;;;;;;;;;;;24.00;29.90;;;;;;484538;246;983;-74
2021/10/23 00:44:14;;;;;;;;;;;23.80;30.00;;;;;;484620;246;984;-74
2021/10/23 00:46:16;;;;;;;;;;;23.90;29.90;;;;;;484583;246;1122;-74
2021/10/23 00:48:17;;;;;;;;;;;23.80;30.00;;;;;;484637;246;1303;-74
2021/10/23 00:50:18;;;;;;;;;;;23.80;29.90;;;;;;484632;246;2137;-74
2021/10/23 00:52:20;;;;;;;;;;;23.80;29.90;;;;;;484629;246;1095;-74
2021/10/23 00:54:21;;;;;;;;;;;23.90;29.90;;;;;;484599;246;958;-74
2021/10/23 00:56:22;;;;;;;;;;;24.00;29.70;;;;;;484591;246;1122;-74
2021/10/23 00:58:24;;;;;;;;;;;23.90;29.80;;;;;;484632;246;978;-74
2021/10/23 01:00:25;;;;;;;;;;;23.90;29.90;;;;;;484580;246;943;-74
2021/10/23 01:02:26;;;;;;;;;;;23.80;30.00;;;;;;484587;246;1255;-74
2021/10/23 01:04:28;;;;;;;;;;;23.90;29.90;;;;;;484605;246;1202;-74
2021/10/23 01:06:29;;;;;;;;;;;23.80;29.90;;;;;;484539;243;1132;-74
2021/10/23 01:08:30;;;;;;;;;;;24.00;29.80;;;;;;484553;246;1064;-74
2021/10/23 01:10:32;;;;;;;;;;;23.90;29.80;;;;;;484632;246;2199;-74
2021/10/23 01:12:33;;;;;;;;;;;23.90;29.80;;;;;;484591;246;1076;-74
2021/10/23 01:14:35;;;;;;;;;;;23.90;29.90;;;;;;484563;246;1012;-74
2021/10/23 01:16:36;;;;;;;;;;;23.80;29.90;;;;;;484502;246;1216;-74
2021/10/23 01:18:37;;;;;;;;;;;23.80;29.90;;;;;;484604;246;1160;-74
2021/10/23 01:20:38;;;;;;;;;;;23.80;29.90;;;;;;484646;246;1386;-74
2021/10/23 01:22:40;;;;;;;;;;;23.90;29.80;;;;;;484643;246;1108;-74
2021/10/23 01:24:41;;;;;;;;;;;23.90;29.80;;;;;;484675;246;976;-74
2021/10/23 01:26:42;;;;;;;;;;;23.90;29.80;;;;;;484608;246;1297;-74
2021/10/23 01:28:44;;;;;;;;;;;23.90;29.80;;;;;;484659;246;961;-74
2021/10/23 01:30:45;;;;;;;;;;;23.90;29.70;;;;;;484544;246;2183;-74
2021/10/23 01:32:47;;;;;;;;;;;23.90;29.80;;;;;;484552;246;1136;-74
2021/10/23 01:34:48;;;;;;;;;;;23.80;29.80;;;;;;484604;246;1418;-74
2021/10/23 01:36:49;;;;;;;;;;;23.90;29.70;;;;;;484566;246;1193;-74
2021/10/23 01:38:50;;;;;;;;;;;24.00;29.60;;;;;;484605;246;1096;-74
2021/10/23 01:40:52;;;;;;;;;;;23.90;29.70;;;;;;484558;246;1184;-74
2021/10/23 01:42:53;;;;;;;;;;;24.00;29.60;;;;;;484642;246;1043;-74
2021/10/23 01:44:54;;;;;;;;;;;24.00;29.60;;;;;;484580;246;1005;-74
2021/10/23 01:46:56;;;;;;;;;;;24.00;29.70;;;;;;484549;246;1218;-74
2021/10/23 01:48:57;;;;;;;;;;;23.90;29.60;;;;;;484602;246;1149;-74
2021/10/23 01:50:58;;;;;;;;;;;24.10;29.60;;;;;;484628;246;2121;-74
2021/10/23 01:53:00;;;;;;;;;;;24.10;29.50;;;;;;484660;241;1211;-74
2021/10/23 01:55:01;;;;;;;;;;;24.10;29.60;;;;;;484609;246;971;-74
2021/10/23 01:57:02;;;;;;;;;;;24.10;29.50;;;;;;484492;246;1141;-74
2021/10/23 01:59:04;;;;;;;;;;;24.00;29.50;;;;;;484588;246;979;-74
2021/10/23 02:01:05;;;;;;;;;;;24.10;29.60;;;;;;484638;246;1164;-73
2021/10/23 02:03:06;;;;;;;;;;;24.00;29.50;;;;;;484691;246;1076;-73
2021/10/23 02:05:08;;;;;;;;;;;24.00;29.60;;;;;;484684;246;1191;-73
2021/10/23 02:07:09;;;;;;;;;;;24.10;29.50;;;;;;484526;246;1146;-73
2021/10/23 02:09:10;;;;;;;;;;;24.00;29.50;;;;;;484637;246;930;-73
2021/10/23 02:11:11;;;;;;;;;;;24.00;29.50;;;;;;484517;246;2172;-73
2021/10/23 02:13:13;;;;;;;;;;;24.00;29.70;;;;;;484601;246;1114;-73
2021/10/23 02:15:14;;;;;;;;;;;24.00;29.60;;;;;;484670;246;992;-73
2021/10/23 02:17:16;;;;;;;;;;;23.90;29.60;;;;;;484592;246;987;-73
2021/10/23 02:19:17;;;;;;;;;;;24.00;29.60;;;;;;484615;246;1226;-73
2021/10/23 02:21:18;;;;;;;;;;;24.00;29.60;;;;;;484487;246;970;-73
2021/10/23 02:23:20;;;;;;;;;;;24.00;29.60;;;;;;484542;246;1064;-73
2021/10/23 02:25:21;;;;;;;;;;;24.10;29.50;;;;;;484629;246;1019;-73
2021/10/23 02:27:22;;;;;;;;;;;24.00;29.60;;;;;;484619;246;946;-73
2021/10/23 02:29:23;;;;;;;;;;;24.00;29.60;;;;;;484635;246;962;-73
2021/10/23 02:31:25;;;;;;;;;;;24.10;29.50;;;;;;484597;246;2187;-74
2021/10/23 02:33:26;;;;;;;;;;;24.00;29.60;;;;;;484599;246;965;-74
2021/10/23 02:35:27;;;;;;;;;;;24.00;29.60;;;;;;484572;246;1184;-74
2021/10/23 02:37:29;;;;;;;;;;;24.00;29.60;;;;;;484515;246;988;-74
2021/10/23 02:39:30;;;;;;;;;;;24.20;29.40;;;;;;484558;246;1197;-74
2021/10/23 02:41:31;;;;;;;;;;;24.20;29.40;;;;;;484409;246;1085;-73
2021/10/23 02:43:33;;;;;;;;;;;24.10;29.40;;;;;;484567;246;1126;-73
2021/10/23 02:45:34;;;;;;;;;;;24.10;29.40;;;;;;484616;246;1287;-73
2021/10/23 02:47:35;;;;;;;;;;;24.10;29.40;;;;;;484561;246;1200;-73
2021/10/23 02:49:38;;;;;;;;;;;24.10;29.40;;;;;;484661;246;1078;-73
2021/10/23 02:51:39;;;;;;;;;;;24.10;29.50;;;;;;484568;246;2176;-73
2021/10/23 02:53:40;;;;;;;;;;;24.10;29.50;;;;;;484670;246;1025;-73
2021/10/23 02:55:42;;;;;;;;;;;24.30;29.40;;;;;;484622;246;1281;-73
2021/10/23 02:57:43;;;;;;;;;;;24.10;29.50;;;;;;484561;246;1024;-73
2021/10/23 02:59:44;;;;;;;;;;;24.10;29.50;;;;;;484631;246;974;-73
2021/10/23 03:01:46;;;;;;;;;;;24.20;29.50;;;;;;484535;246;1138;-73
2021/10/23 03:03:48;;;;;;;;;;;24.10;29.50;;;;;;484614;246;1024;-73
2021/10/23 03:05:48;;;;;;;;;;;24.10;29.50;;;;;;484599;246;1430;-73
2021/10/23 03:07:50;;;;;;;;;;;24.20;29.50;;;;;;484659;246;1070;-73
2021/10/23 03:09:51;;;;;;;;;;;24.10;29.50;;;;;;484658;246;951;-73
2021/10/23 03:11:52;;;;;;;;;;;24.20;29.40;;;;;;484556;246;2136;-73
2021/10/23 03:13:55;;;;;;;;;;;24.20;29.40;;;;;;484572;246;1060;-73
2021/10/23 03:15:56;;;;;;;;;;;24.30;29.40;;;;;;484637;246;1549;-73
2021/10/23 03:17:56;;;;;;;;;;;24.20;29.50;;;;;;484717;246;1417;-73
2021/10/23 03:19:58;;;;;;;;;;;24.30;29.40;;;;;;484608;246;1150;-73
2021/10/23 03:21:59;;;;;;;;;;;24.20;29.40;;;;;;484518;246;1015;-73
2021/10/23 03:24:01;;;;;;;;;;;24.30;29.40;;;;;;484702;246;984;-74
2021/10/23 03:26:02;;;;;;;;;;;24.20;29.40;;;;;;484660;246;959;-74
2021/10/23 03:28:03;;;;;;;;;;;24.20;29.40;;;;;;484648;246;1024;-74
2021/10/23 03:30:04;;;;;;;;;;;24.20;29.40;;;;;;484628;246;1049;-74
2021/10/23 03:32:06;;;;;;;;;;;24.20;29.50;;;;;;484505;246;2109;-74
2021/10/23 03:34:07;;;;;;;;;;;24.20;29.40;;;;;;484543;246;945;-74
2021/10/23 03:36:08;;;;;;;;;;;24.10;29.50;;;;;;484542;246;1194;-74
2021/10/23 03:38:10;;;;;;;;;;;24.30;29.40;;;;;;484644;246;1119;-74
2021/10/23 03:40:11;;;;;;;;;;;24.20;29.40;;;;;;484654;246;1184;-74
2021/10/23 03:42:12;;;;;;;;;;;24.30;29.40;;;;;;484501;246;1100;-74
2021/10/23 03:44:14;;;;;;;;;;;24.30;29.30;;;;;;484556;246;994;-74
2021/10/23 03:46:15;;;;;;;;;;;24.20;29.40;;;;;;484586;246;1110;-74
2021/10/23 03:48:16;;;;;;;;;;;24.30;29.40;;;;;;484607;246;1411;-74
2021/10/23 03:50:18;;;;;;;;;;;24.20;29.40;;;;;;484671;246;1288;-74
2021/10/23 03:52:19;;;;;;;;;;;24.20;29.40;;;;;;484538;246;2187;-74
2021/10/23 03:54:20;;;;;;;;;;;24.10;29.50;;;;;;484636;246;1238;-74
2021/10/23 03:56:22;;;;;;;;;;;24.20;29.40;;;;;;484562;246;1103;-74
2021/10/23 03:58:23;;;;;;;;;;;24.20;29.50;;;;;;484635;246;1094;-74
2021/10/23 04:00:24;;;;;;;;;;;24.20;29.50;;;;;;484566;246;1390;-74
2021/10/23 04:02:26;;;;;;;;;;;24.10;29.40;;;;;;484451;246;1104;-74
2021/10/23 04:04:27;;;;;;;;;;;24.20;29.40;;;;;;484547;246;974;-74
2021/10/23 04:06:28;;;;;;;;;;;24.20;29.40;;;;;;484495;246;1227;-74
2021/10/23 04:08:30;;;;;;;;;;;24.20;29.40;;;;;;484611;246;1053;-74
2021/10/23 04:10:31;;;;;;;;;;;24.20;29.40;;;;;;484627;246;994;-74
2021/10/23 04:12:32;;;;;;;;;;;24.20;29.40;;;;;;484664;246;2191;-74
2021/10/23 04:14:34;;;;;;;;;;;24.20;29.50;;;;;;484613;246;992;-74
2021/10/23 04:16:35;;;;;;;;;;;24.10;29.40;;;;;;484644;246;957;-74
2021/10/23 04:18:36;;;;;;;;;;;24.30;29.30;;;;;;484634;246;1004;-74
2021/10/23 04:20:38;;;;;;;;;;;24.30;29.30;;;;;;484596;246;1126;-74
2021/10/23 04:22:40;;;;;;;;;;;24.20;29.40;;;;;;484633;246;1036;-74
2021/10/23 04:24:41;;;;;;;;;;;24.20;29.40;;;;;;484665;246;980;-74
2021/10/23 04:26:42;;;;;;;;;;;24.20;29.40;;;;;;484668;246;963;-74
2021/10/23 04:28:43;;;;;;;;;;;24.30;29.30;;;;;;484583;246;1032;-74
2021/10/23 04:30:45;;;;;;;;;;;24.10;29.50;;;;;;484546;246;1002;-74
2021/10/23 04:32:46;;;;;;;;;;;24.10;29.50;;;;;;484492;246;2189;-74
2021/10/23 04:34:48;;;;;;;;;;;24.20;29.40;;;;;;484502;246;954;-74
2021/10/23 04:36:49;;;;;;;;;;;24.30;29.50;;;;;;484544;246;1500;-74
2021/10/23 04:38:50;;;;;;;;;;;24.10;29.40;;;;;;484630;246;969;-73
2021/10/23 04:40:52;;;;;;;;;;;24.20;29.50;;;;;;484666;243;1212;-73
2021/10/23 04:42:53;;;;;;;;;;;24.00;29.60;;;;;;484610;246;1140;-73
2021/10/23 04:44:54;;;;;;;;;;;24.00;29.60;;;;;;484580;246;1051;-73
2021/10/23 04:46:56;;;;;;;;;;;24.10;29.60;;;;;;484522;246;1218;-73
2021/10/23 04:48:57;;;;;;;;;;;24.10;29.60;;;;;;484668;246;1096;-74
2021/10/23 04:50:58;;;;;;;;;;;24.10;29.50;;;;;;484536;246;2152;-74
2021/10/23 04:53:00;;;;;;;;;;;24.20;29.60;;;;;;484629;246;1069;-74
2021/10/23 04:55:01;;;;;;;;;;;24.10;29.60;;;;;;484684;246;916;-74
2021/10/23 04:57:02;;;;;;;;;;;24.10;29.60;;;;;;484489;246;1079;-74
2021/10/23 04:59:03;;;;;;;;;;;24.10;29.60;;;;;;484572;246;1128;-74
2021/10/23 05:01:05;;;;;;;;;;;24.10;29.70;;;;;;484445;246;1319;-74
2021/10/23 05:03:07;;;;;;;;;;;24.10;29.50;;;;;;484592;246;1091;-74
2021/10/23 05:05:08;;;;;;;;;;;24.10;29.60;;;;;;484577;246;1123;-74
2021/10/23 05:07:09;;;;;;;;;;;24.20;29.60;;;;;;484724;246;1184;-74
2021/10/23 05:09:10;;;;;;;;;;;24.20;29.50;;;;;;484666;246;1279;-74
2021/10/23 05:11:12;;;;;;;;;;;24.10;29.60;;;;;;484554;246;2187;-74
2021/10/23 05:13:13;;;;;;;;;;;24.10;29.60;;;;;;484615;246;1002;-74
2021/10/23 05:15:14;;;;;;;;;;;24.10;29.60;;;;;;484596;246;1037;-74
2021/10/23 05:17:16;;;;;;;;;;;24.30;29.50;;;;;;484665;246;1359;-74
2021/10/23 05:19:17;;;;;;;;;;;24.20;29.50;;;;;;484441;246;979;-74
2021/10/23 05:21:18;;;;;;;;;;;24.10;29.60;;;;;;484573;246;1177;-74
2021/10/23 05:23:20;;;;;;;;;;;24.10;29.60;;;;;;484547;246;1111;-73
2021/10/23 05:25:21;;;;;;;;;;;24.10;29.50;;;;;;484617;246;1038;-73
2021/10/23 05:27:22;;;;;;;;;;;24.10;29.60;;;;;;484642;246;1168;-73
2021/10/23 05:29:24;;;;;;;;;;;24.00;29.60;;;;;;484681;246;1041;-73
2021/10/23 05:31:25;;;;;;;;;;;24.00;29.60;;;;;;484584;246;2137;-73
2021/10/23 05:33:27;;;;;;;;;;;24.00;29.70;;;;;;484553;246;1152;-73
2021/10/23 05:35:28;;;;;;;;;;;24.10;29.60;;;;;;484612;246;1156;-73
2021/10/23 05:37:29;;;;;;;;;;;24.10;29.60;;;;;;484694;246;1134;-73
2021/10/23 05:39:31;;;;;;;;;;;24.00;29.70;;;;;;484693;246;943;-73
2021/10/23 05:41:32;;;;;;;;;;;24.00;29.70;;;;;;484607;246;1173;-73
2021/10/23 05:43:33;;;;;;;;;;;23.90;29.80;;;;;;484690;246;963;-73
2021/10/23 05:45:35;;;;;;;;;;;24.00;29.70;;;;;;484588;246;1093;-73
2021/10/23 05:47:36;;;;;;;;;;;24.10;29.70;;;;;;484656;246;1112;-73
2021/10/23 05:49:37;;;;;;;;;;;24.00;29.70;;;;;;484623;246;1027;-73
2021/10/23 05:51:38;;;;;;;;;;;24.00;29.80;;;;;;484592;246;2196;-74
2021/10/23 05:53:40;;;;;;;;;;;23.90;29.70;;;;;;484664;246;971;-74
2021/10/23 05:55:41;;;;;;;;;;;24.10;29.70;;;;;;484601;246;1241;-73
2021/10/23 05:57:43;;;;;;;;;;;24.10;29.70;;;;;;484643;246;1036;-73
2021/10/23 05:59:46;;;;;;;;;;;24.00;29.70;;;;;;484623;246;1022;-73
2021/10/23 06:01:47;;;;;;;;;;;24.10;29.60;;;;;;484493;246;1427;-73
2021/10/23 06:03:46;;;;;;;;;;;24.00;29.70;;;;;;484307;246;1513;-73
2021/10/23 06:05:48;;;;;;;;;;;24.00;29.70;;;;;;484510;246;1212;-74
2021/10/23 06:07:49;;;;;;;;;;;23.90;29.80;;;;;;484656;246;1145;-74
2021/10/23 06:09:50;;;;;;;;;;;24.00;29.80;;;;;;484692;246;1220;-74
2021/10/23 06:11:55;;;;;;;;;;;24.00;29.70;;;;;;484594;246;2191;-74
2021/10/23 06:13:55;;;;;;;;;;;24.00;29.80;;;;;;484377;246;1502;-74
2021/10/23 06:15:54;;;;;;;;;;;24.10;29.80;;;;;;484445;246;1496;-74
2021/10/23 06:17:56;;;;;;;;;;;23.90;29.80;;;;;;484595;246;1066;-74
2021/10/23 06:19:57;;;;;;;;;;;23.90;29.90;;;;;;484599;246;1038;-74
2021/10/23 06:21:58;;;;;;;;;;;24.10;29.70;;;;;;484522;246;1152;-74
2021/10/23 06:24:00;;;;;;;;;;;24.00;29.90;;;;;;484651;246;955;-74
2021/10/23 06:26:01;;;;;;;;;;;24.00;29.80;;;;;;484581;244;1199;-74
2021/10/23 06:28:02;;;;;;;;;;;24.00;30.00;;;;;;484614;246;998;-74
2021/10/23 06:30:04;;;;;;;;;;;24.00;29.90;;;;;;484673;246;980;-74
2021/10/23 06:32:05;;;;;;;;;;;24.10;29.80;;;;;;484457;246;2125;-74
2021/10/23 06:34:06;;;;;;;;;;;24.00;29.90;;;;;;484540;246;960;-74
2021/10/23 06:36:08;;;;;;;;;;;24.10;29.90;;;;;;484461;246;1185;-74
2021/10/23 06:38:09;;;;;;;;;;;24.10;29.80;;;;;;484537;246;1178;-74
2021/10/23 06:40:10;;;;;;;;;;;24.20;29.80;;;;;;484573;246;956;-74
2021/10/23 06:42:12;;;;;;;;;;;24.20;29.70;;;;;;484462;246;1085;-74
2021/10/23 06:44:13;;;;;;;;;;;24.10;29.80;;;;;;484535;246;1021;-74
2021/10/23 06:46:14;;;;;;;;;;;24.10;29.80;;;;;;484555;246;1184;-74
2021/10/23 06:48:16;;;;;;;;;;;24.20;29.80;;;;;;484609;246;1095;-74
2021/10/23 06:50:17;;;;;;;;;;;24.20;29.80;;;;;;484615;246;972;-74
2021/10/23 06:52:19;;;;;;;;;;;24.10;29.90;;;;;;484571;246;2204;-74
2021/10/23 06:54:20;;;;;;;;;;;24.20;29.80;;;;;;484604;246;920;-74
2021/10/23 06:56:21;;;;;;;;;;;24.30;29.80;;;;;;484551;246;1194;-74
2021/10/23 06:58:23;;;;;;;;;;;24.20;29.80;;;;;;484621;246;1061;-74
2021/10/23 07:00:24;;;;;;;;;;;24.20;29.90;;;;;;484581;246;1016;-74
2021/10/23 07:02:25;;;;;;;;;;;24.10;29.80;;;;;;484540;246;1527;-74
2021/10/23 07:04:27;;;;;;;;;;;24.40;29.70;;;;;;484607;246;963;-74
2021/10/23 07:06:28;;;;;;;;;;;24.30;29.70;;;;;;484506;246;1214;-74
2021/10/23 07:08:29;;;;;;;;;;;24.30;29.70;;;;;;484754;246;1342;-74
2021/10/23 07:10:31;;;;;;;;;;;24.40;29.70;;;;;;484516;246;1002;-74
2021/10/23 07:12:32;;;;;;;;;;;24.30;29.80;;;;;;484544;246;2124;-73
2021/10/23 07:14:33;;;;;;;;;;;24.30;29.70;;;;;;484593;246;1073;-73
2021/10/23 07:16:34;;;;;;;;;;;24.20;29.90;;;;;;484616;246;1236;-73
2021/10/23 07:18:36;;;;;;;;;;;24.20;29.90;;;;;;484631;246;958;-73
2021/10/23 07:20:37;;;;;;;;;;;24.30;29.90;;;;;;484571;246;1070;-74
2021/10/23 07:22:39;;;;;;;;;;;24.20;29.90;;;;;;484548;246;1158;-74
2021/10/23 07:24:40;;;;;;;;;;;24.30;29.90;;;;;;484570;246;962;-74
2021/10/23 07:26:41;;;;;;;;;;;24.20;30.00;;;;;;484507;246;994;-74
2021/10/23 07:28:43;;;;;;;;;;;24.20;30.00;;;;;;484511;246;1050;-74
2021/10/23 07:30:44;;;;;;;;;;;24.20;30.00;;;;;;484552;246;955;-74
2021/10/23 07:32:45;;;;;;;;;;;24.20;30.00;;;;;;484593;246;2187;-74
2021/10/23 07:34:47;;;;;;;;;;;24.20;30.00;;;;;;484534;246;1227;-73
2021/10/23 07:36:48;;;;;;;;;;;24.30;30.00;;;;;;484500;246;1097;-73
2021/10/23 07:38:50;;;;;;;;;;;24.30;30.00;;;;;;484656;246;958;-73
2021/10/23 07:40:51;;;;;;;;;;;24.30;30.00;;;;;;484581;246;1010;-73
2021/10/23 07:42:52;;;;;;;;;;;24.30;30.00;;;;;;484599;246;1149;-73
2021/10/23 07:44:54;;;;;;;;;;;24.30;30.00;;;;;;484567;246;952;-73
2021/10/23 07:46:55;;;;;;;;;;;24.30;30.00;;;;;;484503;246;1091;-73
2021/10/23 07:48:56;;;;;;;;;;;24.30;30.00;;;;;;484610;246;965;-73
2021/10/23 07:50:58;;;;;;;;;;;24.30;30.00;;;;;;484571;246;985;-73
2021/10/23 07:53:02;;;;;;;;;;;24.30;30.00;;;;;;484562;246;2151;-73
2021/10/23 07:55:00;;;;;;;;;;;24.30;30.00;;;;;;484438;246;1364;-73
2021/10/23 07:57:02;;;;;;;;;;;24.40;30.00;;;;;;484603;246;1225;-73
2021/10/23 07:59:03;;;;;;;;;;;24.30;30.00;;;;;;484711;246;1322;-73
2021/10/23 08:01:04;;;;;;;;;;;24.30;30.00;;;;;;484543;246;1100;-73
2021/10/23 08:03:06;;;;;;;;;;;24.30;30.10;;;;;;484542;246;1226;-73
2021/10/23 08:05:07;;;;;;;;;;;24.30;30.10;;;;;;484583;246;998;-73
2021/10/23 08:07:08;;;;;;;;;;;24.40;30.10;;;;;;484585;246;1106;-73
2021/10/23 08:09:12;;;;;;;;;;;24.30;30.10;;;;;;484613;246;981;-73
2021/10/23 08:11:13;;;;;;;;;;;24.30;30.00;;;;;;484531;246;1140;-73
2021/10/23 08:13:14;;;;;;;;;;;24.40;30.10;;;;;;484545;246;2123;-73
2021/10/23 08:15:16;;;;;;;;;;;24.20;30.30;;;;;;484593;246;927;-73
2021/10/23 08:17:17;;;;;;;;;;;24.20;30.30;;;;;;484450;246;1319;-73
2021/10/23 08:19:18;;;;;;;;;;;24.30;30.20;;;;;;484490;246;1086;-73
2021/10/23 08:21:20;;;;;;;;;;;24.30;30.30;;;;;;484670;246;1270;-73
2021/10/23 08:23:21;;;;;;;;;;;24.40;30.30;;;;;;484563;246;1194;-73
2021/10/23 08:25:22;;;;;;;;;;;24.30;30.20;;;;;;484623;246;979;-73
2021/10/23 08:27:24;;;;;;;;;;;24.30;30.30;;;;;;484555;246;1324;-73
2021/10/23 08:29:25;;;;;;;;;;;24.30;30.30;;;;;;484508;246;992;-73
2021/10/23 08:31:27;;;;;;;;;;;24.20;30.40;;;;;;484596;246;1207;-73
2021/10/23 08:33:28;;;;;;;;;;;24.50;30.20;;;;;;484763;246;2190;-73
2021/10/23 08:35:29;;;;;;;;;;;24.70;30.00;;;;;;484599;246;1061;-74
2021/10/23 08:37:31;;;;;;;;;;;24.80;29.90;;;;;;484522;246;1191;-73
2021/10/23 08:39:32;;;;;;;;;;;24.80;29.80;;;;;;484617;246;940;-73
2021/10/23 08:41:33;;;;;;;;;;;24.90;29.90;;;;;;484551;246;1305;-73
2021/10/23 08:43:34;;;;;;;;;;;24.90;29.80;;;;;;484712;246;1068;-73
2021/10/23 08:45:36;;;;;;;;;;;24.90;29.80;;;;;;484595;246;1350;-73
2021/10/23 08:47:37;;;;;;;;;;;24.90;29.80;;;;;;484601;246;1147;-73
2021/10/23 08:49:38;;;;;;;;;;;24.90;29.80;;;;;;484608;246;954;-73
2021/10/23 08:51:40;;;;;;;;;;;25.00;29.80;;;;;;484591;246;1253;-73
2021/10/23 08:53:41;;;;;;;;;;;25.00;29.70;;;;;;484487;246;2199;-73
2021/10/23 08:55:43;;;;;;;;;;;25.10;29.80;;;;;;484618;246;1126;-73
2021/10/23 08:57:44;;;;;;;;;;;25.10;29.80;;;;;;484595;246;1105;-73
2021/10/23 08:59:45;;;;;;;;;;;25.10;29.70;;;;;;484570;246;960;-73
2021/10/23 09:01:47;;;;;;;;;;;25.10;29.70;;;;;;484550;246;1139;-73
2021/10/23 09:03:48;;;;;;;;;;;25.10;29.80;;;;;;484667;246;1203;-73
2021/10/23 09:05:49;;;;;;;;;;;25.20;29.80;;;;;;484588;246;976;-73
2021/10/23 09:07:51;;;;;;;;;;;25.10;29.80;;;;;;484582;246;1159;-73
2021/10/23 09:09:52;;;;;;;;;;;25.10;29.80;;;;;;484629;246;1028;-73
2021/10/23 09:11:53;;;;;;;;;;;25.10;29.80;;;;;;484592;246;953;-74
2021/10/23 09:13:55;;;;;;;;;;;25.20;29.80;;;;;;484591;246;2195;-74
2021/10/23 09:15:56;;;;;;;;;;;25.10;29.80;;;;;;484598;246;1094;-74
2021/10/23 09:17:58;;;;;;;;;;;25.10;29.80;;;;;;484623;246;936;-74
2021/10/23 09:19:59;;;;;;;;;;;25.20;29.90;;;;;;484703;246;1386;-74
2021/10/23 09:22:00;;;;;;;;;;;25.10;29.90;;;;;;484591;246;950;-74
2021/10/23 09:24:01;;;;;;;;;;;25.10;29.90;;;;;;484629;246;1188;-74
2021/10/23 09:26:03;;;;;;;;;;;25.10;29.90;;;;;;484576;246;1040;-74
2021/10/23 09:28:04;;;;;;;;;;;25.20;29.90;;;;;;484540;246;972;-74
2021/10/23 09:30:05;;;;;;;;;;;25.20;29.90;;;;;;484591;246;1127;-74
2021/10/23 09:32:07;;;;;;;;;;;25.20;30.00;;;;;;484595;246;940;-74
2021/10/23 09:34:08;;;;;;;;;;;25.30;30.00;;;;;;484612;246;2204;-74
2021/10/23 09:36:10;;;;;;;;;;;25.30;30.00;;;;;;484507;246;1104;-74
2021/10/23 09:38:11;;;;;;;;;;;25.20;30.00;;;;;;484514;246;1181;-74
2021/10/23 09:40:12;;;;;;;;;;;25.10;30.00;;;;;;484535;246;954;-74
2021/10/23 09:42:14;;;;;;;;;;;25.20;30.00;;;;;;484475;246;1272;-74
2021/10/23 09:44:15;;;;;;;;;;;25.20;30.00;;;;;;484587;246;996;-74
2021/10/23 09:46:21;;;;;;;;;;;25.20;30.00;;;;;;484528;246;935;-74
2021/10/23 09:48:18;;;;;;;;;;;25.20;30.00;;;;;;484305;246;1434;-74
2021/10/23 09:50:19;;;;;;;;;;;25.20;30.00;;;;;;484631;246;1012;-74
2021/10/23 09:52:20;;;;;;;;;;;25.20;30.00;;;;;;484572;246;1104;-74
2021/10/23 09:54:21;;;;;;;;;;;25.30;30.00;;;;;;484537;246;2187;-74
2021/10/23 09:56:23;;;;;;;;;;;25.20;30.00;;;;;;484529;246;953;-74
2021/10/23 09:58:24;;;;;;;;;;;25.30;30.00;;;;;;484557;246;1097;-74
2021/10/23 10:00:25;;;;;;;;;;;25.30;30.00;;;;;;484576;246;968;-74
2021/10/23 10:02:27;;;;;;;;;;;25.30;30.00;;;;;;484645;246;1043;-74
2021/10/23 10:04:28;;;;;;;;;;;25.30;30.00;;;;;;484632;246;1032;-74
2021/10/23 10:06:30;;;;;;;;;;;25.30;30.00;;;;;;484499;246;1020;-74
2021/10/23 10:08:31;;;;;;;;;;;25.20;30.00;;;;;;484579;246;1145;-74
2021/10/23 10:10:32;;;;;;;;;;;25.30;30.10;;;;;;484588;246;964;-74
2021/10/23 10:12:34;;;;;;;;;;;25.30;30.00;;;;;;484515;246;971;-74
2021/10/23 10:14:35;;;;;;;;;;;25.30;30.10;;;;;;484539;246;2172;-74
2021/10/23 10:16:36;;;;;;;;;;;25.40;30.10;;;;;;484612;246;965;-74
2021/10/23 10:18:38;;;;;;;;;;;25.40;30.10;;;;;;484606;246;1034;-74
2021/10/23 10:20:39;;;;;;;;;;;25.40;30.20;;;;;;484613;246;952;-74
2021/10/23 10:22:40;;;;;;;;;;;25.30;30.20;;;;;;484559;246;1079;-74
2021/10/23 10:24:42;;;;;;;;;;;25.40;30.20;;;;;;484527;246;1166;-74
2021/10/23 10:26:43;;;;;;;;;;;25.30;30.20;;;;;;484568;246;1351;-74
2021/10/23 10:28:44;;;;;;;;;;;25.30;30.10;;;;;;484599;246;1125;-74
2021/10/23 10:30:47;;;;;;;;;;;25.30;30.10;;;;;;484633;246;1006;-74
2021/10/23 10:32:47;;;;;;;;;;;25.40;30.10;;;;;;484522;246;1183;-74
2021/10/23 10:34:54;;;;;;;;;;;25.40;30.20;;;;;;484626;246;2196;-74
2021/10/23 10:36:50;;;;;;;;;;;25.40;30.20;;;;;;484168;246;1559;-74
2021/10/23 10:38:58;;;;;;;;;;;25.40;30.10;;;;;;484393;246;1113;-74
2021/10/23 10:42:42;;;;;;;;;;;25.30;30.10;;;;;;484385;246;1505;-74
2021/10/23 10:42:59;;;;;;;;;;;25.40;30.10;;;;;;483164;246;1170;-74
2021/10/23 10:45:01;;;;;;;;;;;25.40;30.00;;;;;;484583;246;1028;-74
2021/10/23 10:47:03;;;;;;;;;;;25.40;30.00;;;;;;484558;246;1120;-74
2021/10/23 10:49:04;;;;;;;;;;;25.40;30.00;;;;;;484451;246;1442;-74
2021/10/23 10:51:05;;;;;;;;;;;25.40;30.10;;;;;;484628;246;1113;-74
2021/10/23 10:53:07;;;;;;;;;;;25.40;30.10;;;;;;484538;246;2204;-74
2021/10/23 10:55:08;;;;;;;;;;;25.40;30.10;;;;;;484571;246;954;-74
2021/10/23 10:57:09;;;;;;;;;;;25.40;30.10;;;;;;484515;246;1176;-74
2021/10/23 10:59:11;;;;;;;;;;;25.40;30.00;;;;;;484578;246;1705;-74
2021/10/23 11:01:12;;;;;;;;;;;25.40;30.00;;;;;;484606;246;1192;-74
2021/10/23 11:03:14;;;;;;;;;;;25.40;30.10;;;;;;484635;246;967;-74
2021/10/23 11:05:15;;;;;;;;;;;25.30;30.10;;;;;;484636;246;1002;-74
2021/10/23 11:07:16;;;;;;;;;;;25.40;30.00;;;;;;484641;246;1104;-74
2021/10/23 11:09:19;;;;;;;;;;;25.30;30.00;;;;;;484555;246;1189;-74
2021/10/23 11:11:19;;;;;;;;;;;25.30;30.00;;;;;;484468;241;1412;-74
2021/10/23 11:13:20;;;;;;;;;;;25.30;30.10;;;;;;484592;246;2187;-74
2021/10/23 11:15:22;;;;;;;;;;;25.40;30.00;;;;;;484638;246;1037;-74
2021/10/23 11:17:24;;;;;;;;;;;25.40;30.00;;;;;;484354;246;1187;-74
2021/10/23 11:19:24;;;;;;;;;;;25.40;30.00;;;;;;484693;246;1346;-74
2021/10/23 11:21:25;;;;;;;;;;;25.40;30.00;;;;;;484581;246;1325;-74
2021/10/23 11:23:27;;;;;;;;;;;25.40;30.00;;;;;;484649;246;1245;-74
2021/10/23 11:25:28;;;;;;;;;;;25.40;30.10;;;;;;484606;246;958;-74
2021/10/23 11:27:30;;;;;;;;;;;25.30;30.10;;;;;;484535;246;1052;-74
2021/10/23 11:29:31;;;;;;;;;;;25.40;30.10;;;;;;484591;246;954;-74
2021/10/23 11:31:32;;;;;;;;;;;25.40;30.20;;;;;;484641;246;1212;-74
2021/10/23 11:33:33;;;;;;;;;;;25.30;30.10;;;;;;484555;246;2133;-74
2021/10/23 11:35:35;;;;;;;;;;;25.40;30.20;;;;;;484634;246;963;-74
2021/10/23 11:37:36;;;;;;;;;;;25.40;30.20;;;;;;484632;246;1176;-74
2021/10/23 11:39:38;;;;;;;;;;;25.30;30.20;;;;;;484582;246;1178;-74
2021/10/23 11:41:39;;;;;;;;;;;25.40;30.20;;;;;;484480;246;1242;-74
2021/10/23 11:43:41;;;;;;;;;;;25.40;30.20;;;;;;484564;246;1042;-74
2021/10/23 11:45:42;;;;;;;;;;;25.30;30.10;;;;;;484673;246;1429;-74
2021/10/23 11:47:43;;;;;;;;;;;25.40;30.20;;;;;;484596;246;1228;-74
2021/10/23 11:49:44;;;;;;;;;;;25.40;30.20;;;;;;484608;246;937;-74
2021/10/23 11:51:46;;;;;;;;;;;25.30;30.30;;;;;;484563;246;1304;-74
2021/10/23 11:53:47;;;;;;;;;;;25.20;30.30;;;;;;484635;246;2190;-74
2021/10/23 11:55:48;;;;;;;;;;;25.30;30.40;;;;;;484611;246;1150;-74
2021/10/23 11:57:50;;;;;;;;;;;25.30;30.40;;;;;;484545;246;1062;-74
2021/10/23 11:59:51;;;;;;;;;;;25.30;30.40;;;;;;484591;246;958;-74